createdAt,value
2019-02-21T00:01:53.763Z,38.40
2019-02-21T00:04:23.283Z,21.93
2019-02-21T00:06:52.941Z,25.80
2019-02-21T00:09:22.388Z,24.20
2019-02-21T00:11:51.850Z,29.40
2019-02-21T00:14:21.577Z,26.47
2019-02-21T00:16:51.031Z,21.57
2019-02-21T00:19:20.509Z,27.50
2019-02-21T00:21:49.953Z,27.70
2019-02-21T00:24:19.410Z,26.75
2019-02-21T00:26:48.892Z,30.03
2019-02-21T00:29:18.360Z,28.40
2019-02-21T00:31:47.825Z,26.73
2019-02-21T00:34:17.337Z,26.35
2019-02-21T00:36:46.775Z,26.87
2019-02-21T00:39:16.232Z,23.40
2019-02-21T00:41:45.683Z,30.93
2019-02-21T00:44:15.157Z,40.37
2019-02-21T00:46:44.612Z,25.13
2019-02-21T00:49:14.089Z,26.40
2019-02-21T00:51:43.545Z,27.70
2019-02-21T00:54:13.865Z,43.33
2019-02-21T00:56:43.339Z,24.15
2019-02-21T00:59:12.812Z,26.53
2019-02-21T01:01:42.267Z,22.93
2019-02-21T01:04:11.799Z,36.40
2019-02-21T01:06:41.272Z,28.77
2019-02-21T01:09:10.742Z,32.13
2019-02-21T01:11:40.188Z,35.40
2019-02-21T01:14:09.661Z,47.37
2019-02-21T01:16:39.123Z,32.13
2019-02-21T01:19:08.581Z,28.77
2019-02-21T01:21:38.083Z,27.83
2019-02-21T01:24:07.523Z,47.17
2019-02-21T01:26:36.976Z,31.87
2019-02-21T01:29:06.451Z,20.40
2019-02-21T01:31:35.934Z,30.60
2019-02-21T01:34:05.362Z,40.05
2019-02-21T01:36:34.841Z,33.50
2019-02-21T01:39:06.186Z,34.67
2019-02-21T01:41:35.666Z,35.35
2019-02-21T01:44:05.124Z,40.27
2019-02-21T01:46:34.599Z,29.87
2019-02-21T01:49:04.071Z,27.20
2019-02-21T01:51:33.524Z,29.50
2019-02-21T01:54:02.981Z,27.80
2019-02-21T01:56:32.459Z,30.03
2019-02-21T01:59:01.918Z,23.73
2019-02-21T02:01:31.375Z,25.30
2019-02-21T02:04:00.854Z,24.23
2019-02-21T02:06:30.325Z,25.67
2019-02-21T02:08:59.805Z,21.97
2019-02-21T02:11:29.261Z,22.30
2019-02-21T02:13:58.730Z,28.43
2019-02-21T02:16:28.193Z,24.27
2019-02-21T02:18:57.686Z,30.63
2019-02-21T02:21:27.162Z,27.07
2019-02-21T02:23:56.610Z,25.30
2019-02-21T02:26:26.067Z,27.27
2019-02-21T02:28:55.702Z,23.73
2019-02-21T02:31:25.203Z,22.93
2019-02-21T02:33:54.722Z,23.40
2019-02-21T02:36:24.190Z,22.97
2019-02-21T02:38:53.645Z,22.43
2019-02-21T02:41:23.101Z,21.77
2019-02-21T02:43:52.624Z,24.07
2019-02-21T02:46:22.037Z,25.20
2019-02-21T02:48:51.502Z,22.97
2019-02-21T02:51:20.972Z,21.63
2019-02-21T02:53:50.425Z,25.00
2019-02-21T02:56:19.902Z,23.00
2019-02-21T02:58:49.354Z,30.53
2019-02-21T03:01:18.815Z,27.90
2019-02-21T03:03:48.381Z,24.00
2019-02-21T03:06:17.835Z,33.03
2019-02-21T03:08:47.316Z,23.43
2019-02-21T03:11:16.791Z,30.10
2019-02-21T03:13:46.251Z,27.10
2019-02-21T03:16:15.726Z,23.43
2019-02-21T03:18:45.177Z,25.10
2019-02-21T03:21:14.636Z,22.87
2019-02-21T03:23:44.084Z,25.48
2019-02-21T03:26:13.560Z,23.53
2019-02-21T03:28:43.038Z,22.17
2019-02-21T03:31:12.497Z,19.10
2019-02-21T03:33:41.961Z,23.17
2019-02-21T03:36:11.435Z,30.55
2019-02-21T03:38:40.912Z,17.90
2019-02-21T03:41:10.753Z,23.77
2019-02-21T03:43:41.154Z,20.47
2019-02-21T03:46:10.603Z,23.10
2019-02-21T03:48:40.079Z,20.83
2019-02-21T03:51:09.548Z,21.70
2019-02-21T03:53:39.106Z,21.80
2019-02-21T03:56:08.563Z,21.50
2019-02-21T03:58:38.026Z,19.80
2019-02-21T04:01:07.494Z,22.22
2019-02-21T04:03:36.954Z,23.50
2019-02-21T04:06:06.439Z,22.45
2019-02-21T04:08:35.884Z,50.60
2019-02-21T04:11:05.346Z,19.17
2019-02-21T04:13:34.815Z,24.40
2019-02-21T04:16:04.548Z,31.10
2019-02-21T04:18:34.002Z,24.23
2019-02-21T04:21:03.477Z,18.60
2019-02-21T04:23:32.933Z,21.80
2019-02-21T04:26:02.394Z,22.80
2019-02-21T04:28:31.868Z,26.23
2019-02-21T04:31:01.327Z,22.80
2019-02-21T04:33:30.818Z,21.90
2019-02-21T04:36:00.292Z,20.47
2019-02-21T04:38:29.743Z,21.37
2019-02-21T04:40:59.224Z,23.60
2019-02-21T04:43:28.684Z,23.53
2019-02-21T04:45:58.161Z,23.97
2019-02-21T04:48:27.628Z,21.57
2019-02-21T04:50:57.068Z,26.93
2019-02-21T04:53:26.549Z,30.23
2019-02-21T04:55:56.000Z,23.40
2019-02-21T04:58:25.480Z,26.90
2019-02-21T05:00:55.002Z,26.15
2019-02-21T05:03:24.462Z,27.57
2019-02-21T05:05:53.937Z,23.27
2019-02-21T05:08:23.398Z,31.73
2019-02-21T05:10:52.866Z,29.40
2019-02-21T05:13:22.334Z,27.75
2019-02-21T05:15:51.811Z,28.77
2019-02-21T05:18:21.275Z,32.80
2019-02-21T05:20:50.715Z,28.53
2019-02-21T05:23:20.189Z,26.80
2019-02-21T05:25:49.647Z,27.07
2019-02-21T05:28:20.840Z,25.57
2019-02-21T05:30:51.932Z,27.83
2019-02-21T05:33:35.726Z,29.83
2019-02-21T05:36:12.415Z,23.03
2019-02-21T05:38:56.461Z,29.23
2019-02-21T05:41:31.347Z,23.77
2019-02-21T05:44:17.001Z,38.28
2019-02-21T05:46:53.573Z,25.47
2019-02-21T05:49:39.464Z,28.10
2019-02-21T05:52:16.338Z,30.60
2019-02-21T05:54:48.011Z,27.30
2019-02-21T05:57:28.237Z,30.23
2019-02-21T06:00:01.940Z,27.30
2019-02-21T06:02:39.018Z,28.43
2019-02-21T06:05:10.189Z,27.93
2019-02-21T06:07:59.030Z,28.77
2019-02-21T06:10:36.979Z,32.40
2019-02-21T06:13:14.892Z,23.20
2019-02-21T06:15:58.012Z,28.03
2019-02-21T06:18:44.684Z,29.77
2019-02-21T06:21:33.585Z,27.00
2019-02-21T06:24:13.121Z,34.23
2019-02-21T06:26:52.923Z,25.87
2019-02-21T06:29:35.831Z,31.35
2019-02-21T06:32:13.904Z,25.57
2019-02-21T06:34:36.474Z,27.50
2019-02-21T06:37:05.954Z,23.23
2019-02-21T06:39:35.403Z,34.30
2019-02-21T06:42:04.974Z,31.93
2019-02-21T06:44:34.532Z,35.17
2019-02-21T06:47:03.984Z,41.07
2019-02-21T06:49:33.442Z,29.50
2019-02-21T06:52:02.911Z,41.20
2019-02-21T06:54:32.368Z,41.23
2019-02-21T06:57:01.828Z,40.05
2019-02-21T06:59:41.557Z,34.30
2019-02-21T07:02:02.479Z,26.70
2019-02-21T07:04:33.364Z,34.33
2019-02-21T07:07:02.894Z,37.38
2019-02-21T07:09:32.350Z,32.58
2019-02-21T07:12:01.822Z,31.77
2019-02-21T07:14:31.383Z,26.60
2019-02-21T07:17:00.868Z,32.58
2019-02-21T07:19:30.319Z,31.60
2019-02-21T07:21:59.796Z,31.10
2019-02-21T07:24:29.324Z,43.33
2019-02-21T07:26:58.786Z,33.13
2019-02-21T07:29:28.261Z,32.00
2019-02-21T07:31:57.721Z,31.10
2019-02-21T07:34:27.196Z,32.30
2019-02-21T07:36:56.650Z,33.00
2019-02-21T07:39:35.677Z,35.87
2019-02-21T07:41:57.289Z,34.03
2019-02-21T07:44:26.744Z,37.40
2019-02-21T07:46:56.199Z,30.73
2019-02-21T07:49:25.890Z,29.17
2019-02-21T07:51:55.302Z,33.40
2019-02-21T07:54:24.769Z,39.37
2019-02-21T07:56:54.247Z,32.23
2019-02-21T07:59:23.721Z,35.83
2019-02-21T08:01:53.200Z,31.37
2019-02-21T08:04:22.658Z,29.67
2019-02-21T08:06:55.432Z,28.30
2019-02-21T08:09:23.556Z,30.37
2019-02-21T08:11:53.089Z,30.37
2019-02-21T08:14:22.573Z,32.90
2019-02-21T08:16:52.026Z,35.53
2019-02-21T08:19:21.474Z,34.87
2019-02-21T08:21:51.078Z,30.83
2019-02-21T08:24:20.578Z,36.80
2019-02-21T08:26:50.056Z,35.37
2019-02-21T08:29:20.776Z,30.57
2019-02-21T08:31:50.351Z,28.63
2019-02-21T08:34:21.461Z,29.10
2019-02-21T08:36:50.916Z,29.70
2019-02-21T08:39:20.392Z,29.30
2019-02-21T08:41:49.858Z,24.60
2019-02-21T08:44:19.321Z,30.73
2019-02-21T08:46:48.797Z,30.33
2019-02-21T08:49:18.441Z,29.13
2019-02-21T08:51:47.900Z,28.87
2019-02-21T08:54:17.374Z,25.27
2019-02-21T08:56:46.828Z,28.03
2019-02-21T08:59:16.284Z,29.50
2019-02-21T09:01:45.761Z,31.30
2019-02-21T09:04:26.883Z,38.40
2019-02-21T09:06:46.430Z,27.87
2019-02-21T09:09:15.940Z,31.10
2019-02-21T09:11:45.425Z,27.70
2019-02-21T09:14:14.877Z,51.97
2019-02-21T09:16:44.353Z,31.27
2019-02-21T09:19:13.802Z,31.52
2019-02-21T09:21:43.331Z,29.60
2019-02-21T09:24:13.845Z,46.50
2019-02-21T09:26:43.987Z,33.77
2019-02-21T09:29:13.464Z,24.30
2019-02-21T09:31:42.929Z,30.83
2019-02-21T09:34:20.878Z,41.87
2019-02-21T09:36:43.596Z,24.37
2019-02-21T09:39:13.053Z,32.73
2019-02-21T09:41:42.514Z,33.37
2019-02-21T09:44:11.988Z,37.77
2019-02-21T09:46:41.450Z,26.30
2019-02-21T09:49:10.902Z,25.40
2019-02-21T09:51:40.385Z,31.47
2019-02-21T09:54:09.849Z,43.13
2019-02-21T09:56:39.310Z,29.40
2019-02-21T09:59:08.781Z,30.10
2019-02-21T10:01:38.242Z,34.27
2019-02-21T10:04:07.701Z,38.95
2019-02-21T10:06:37.175Z,30.13
2019-02-21T10:09:06.966Z,32.40
2019-02-21T10:11:36.457Z,35.80
2019-02-21T10:14:05.912Z,39.90
2019-02-21T10:16:35.377Z,31.97
2019-02-21T10:19:04.865Z,37.50
2019-02-21T10:21:34.339Z,33.60
2019-02-21T10:24:03.786Z,37.63
2019-02-21T10:26:33.293Z,32.90
2019-02-21T10:29:02.716Z,31.40
2019-02-21T10:31:32.190Z,27.70
2019-02-21T10:34:01.676Z,34.60
2019-02-21T10:36:31.127Z,35.53
2019-02-21T10:39:00.663Z,31.48
2019-02-21T10:41:30.136Z,34.17
2019-02-21T10:43:59.714Z,32.80
2019-02-21T10:46:30.917Z,33.58
2019-02-21T10:49:00.490Z,33.60
2019-02-21T10:51:30.202Z,30.87
2019-02-21T10:53:59.687Z,42.07
2019-02-21T10:56:29.152Z,34.17
2019-02-21T10:58:58.613Z,35.00
2019-02-21T11:01:28.100Z,32.13
2019-02-21T11:03:57.558Z,28.70
2019-02-21T11:06:27.056Z,34.50
2019-02-21T11:08:56.513Z,29.33
2019-02-21T11:11:26.161Z,36.90
2019-02-21T11:13:55.631Z,34.23
2019-02-21T11:16:25.117Z,36.40
2019-02-21T11:18:54.626Z,38.03
2019-02-21T11:21:24.122Z,37.23
2019-02-21T11:23:53.607Z,38.83
2019-02-21T11:26:23.319Z,36.90
2019-02-21T11:28:52.775Z,31.37
2019-02-21T11:31:22.269Z,37.10
2019-02-21T11:33:51.733Z,35.47
2019-02-21T11:36:21.281Z,48.23
2019-02-21T11:38:50.741Z,39.27
2019-02-21T11:41:20.375Z,36.30
2019-02-21T11:43:49.924Z,35.87
2019-02-21T11:46:19.393Z,41.70
2019-02-21T11:48:48.858Z,39.20
2019-02-21T11:51:18.338Z,41.37
2019-02-21T11:53:47.798Z,36.35
2019-02-21T11:56:17.269Z,44.47
2019-02-21T11:58:46.757Z,42.50
2019-02-21T12:01:16.288Z,41.37
2019-02-21T12:03:45.769Z,38.50
2019-02-21T12:06:15.235Z,38.10
2019-02-21T12:08:45.012Z,40.37
2019-02-21T12:11:14.530Z,39.10
2019-02-21T12:13:44.036Z,40.10
2019-02-21T12:16:13.522Z,42.93
2019-02-21T12:18:43.002Z,42.00
2019-02-21T12:21:12.466Z,44.80
2019-02-21T12:23:41.941Z,46.30
2019-02-21T12:26:11.594Z,50.90
2019-02-21T12:28:41.050Z,48.47
2019-02-21T12:31:10.771Z,42.00
2019-02-21T12:33:40.243Z,44.47
2019-02-21T12:36:09.717Z,52.05
2019-02-21T12:38:39.202Z,46.97
2019-02-21T12:41:08.669Z,45.80
2019-02-21T12:43:38.137Z,60.80
2019-02-21T12:46:07.623Z,52.17
2019-02-21T12:48:37.090Z,56.70
2019-02-21T12:51:06.565Z,49.57
2019-02-21T12:53:36.052Z,50.70
2019-02-21T12:56:05.509Z,43.67
2019-02-21T12:58:34.994Z,45.88
2019-02-21T13:01:04.482Z,58.17
2019-02-21T13:03:33.961Z,44.60
2019-02-21T13:06:03.716Z,47.67
2019-02-21T13:08:33.173Z,44.80
2019-02-21T13:11:02.658Z,43.00
2019-02-21T13:13:32.136Z,56.17
2019-02-21T13:16:01.600Z,47.23
2019-02-21T13:18:31.060Z,51.37
2019-02-21T13:21:00.545Z,59.23
2019-02-21T13:23:30.026Z,48.27
2019-02-21T13:25:59.513Z,43.47
2019-02-21T13:28:28.951Z,51.43
2019-02-21T13:30:58.443Z,43.80
2019-02-21T13:33:27.919Z,51.40
2019-02-21T13:35:57.396Z,43.83
2019-02-21T13:38:27.097Z,42.37
2019-02-21T13:40:56.560Z,41.47
2019-02-21T13:43:26.042Z,42.80
2019-02-21T13:45:55.517Z,47.33
2019-02-21T13:48:24.978Z,44.70
2019-02-21T13:50:54.472Z,43.63
2019-02-21T13:53:23.928Z,40.77
2019-02-21T13:55:53.423Z,41.27
2019-02-21T13:58:22.937Z,41.70
2019-02-21T14:00:52.497Z,35.77
2019-02-21T14:03:21.910Z,40.90
2019-02-21T14:05:51.452Z,38.17
2019-02-21T14:08:20.930Z,38.33
2019-02-21T14:10:50.654Z,41.40
2019-02-21T14:13:20.151Z,39.13
2019-02-21T14:15:49.621Z,48.02
2019-02-21T14:18:19.087Z,43.17
2019-02-21T14:20:48.627Z,44.20
2019-02-21T14:23:18.129Z,37.40
2019-02-21T14:25:47.570Z,39.13
2019-02-21T14:28:17.057Z,37.80
2019-02-21T14:30:46.518Z,30.87
2019-02-21T14:33:17.458Z,34.50
2019-02-21T14:35:47.132Z,32.57
2019-02-21T14:38:27.026Z,37.13
2019-02-21T14:40:47.805Z,39.07
2019-02-21T14:43:17.548Z,39.17
2019-02-21T14:45:47.027Z,35.77
2019-02-21T14:48:16.508Z,35.30
2019-02-21T14:50:46.009Z,44.57
2019-02-21T14:53:15.495Z,38.57
2019-02-21T14:55:44.960Z,41.80
2019-02-21T14:58:14.449Z,38.47
2019-02-21T15:00:43.984Z,41.70
2019-02-21T15:03:21.529Z,37.05
2019-02-21T15:05:44.902Z,40.90
2019-02-21T15:08:15.344Z,39.90
2019-02-21T15:10:44.834Z,42.83
2019-02-21T15:13:14.285Z,45.30
2019-02-21T15:15:43.745Z,52.23
2019-02-21T15:18:13.229Z,47.60
2019-02-21T15:20:43.545Z,47.50
2019-02-21T15:23:13.146Z,42.40
2019-02-21T15:25:42.643Z,50.87
2019-02-21T15:28:12.223Z,39.87
2019-02-21T15:30:41.679Z,42.27
2019-02-21T15:33:11.143Z,45.77
2019-02-21T15:35:40.622Z,57.70
2019-02-21T15:38:19.607Z,39.30
2019-02-21T15:40:43.356Z,43.60
2019-02-21T15:43:12.483Z,43.03
2019-02-21T15:45:42.015Z,38.27
2019-02-21T15:48:11.552Z,48.27
2019-02-21T15:50:41.043Z,41.70
2019-02-21T15:53:10.514Z,40.23
2019-02-21T15:55:40.080Z,46.77
2019-02-21T15:58:09.529Z,44.67
2019-02-21T16:00:39.002Z,47.70
2019-02-21T16:03:08.491Z,43.50
2019-02-21T16:05:37.954Z,47.07
2019-02-21T16:08:07.418Z,50.50
2019-02-21T16:10:39.663Z,47.20
2019-02-21T16:13:08.438Z,48.57
2019-02-21T16:15:37.926Z,53.93
2019-02-21T16:18:07.407Z,47.62
2019-02-21T16:20:36.873Z,50.30
2019-02-21T16:23:06.352Z,55.23
2019-02-21T16:25:35.812Z,62.80
2019-02-21T16:28:05.278Z,53.53
2019-02-21T16:30:34.766Z,48.63
2019-02-21T16:33:04.226Z,49.33
2019-02-21T16:35:33.693Z,65.37
2019-02-21T16:38:03.174Z,52.30
2019-02-21T16:40:32.666Z,48.60
2019-02-21T16:43:02.128Z,50.38
2019-02-21T16:45:43.028Z,49.63
2019-02-21T16:48:02.804Z,50.37
2019-02-21T16:50:32.300Z,47.00
2019-02-21T16:53:01.779Z,49.33
2019-02-21T16:55:31.243Z,45.17
2019-02-21T16:58:00.712Z,50.00
2019-02-21T17:00:42.242Z,46.07
2019-02-21T17:03:01.446Z,43.57
2019-02-21T17:05:30.980Z,56.50
2019-02-21T17:08:00.469Z,42.05
2019-02-21T17:10:29.934Z,46.57
2019-02-21T17:12:59.414Z,45.80
2019-02-21T17:15:28.903Z,48.50
2019-02-21T17:18:03.885Z,50.87
2019-02-21T17:20:29.548Z,46.57
2019-02-21T17:22:59.100Z,48.73
2019-02-21T17:25:28.565Z,51.93
2019-02-21T17:27:58.062Z,47.97
2019-02-21T17:30:27.527Z,46.10
2019-02-21T17:32:56.994Z,51.00
2019-02-21T17:35:26.481Z,47.50
2019-02-21T17:37:55.937Z,41.37
2019-02-21T17:40:26.309Z,39.13
2019-02-21T17:42:55.866Z,34.27
2019-02-21T17:45:25.490Z,40.07
2019-02-21T17:47:54.959Z,41.33
2019-02-21T17:50:24.436Z,37.60
2019-02-21T17:52:53.918Z,37.27
2019-02-21T17:55:23.468Z,44.57
2019-02-21T17:57:52.999Z,41.00
2019-02-21T18:00:32.536Z,41.67
2019-02-21T18:03:02.001Z,38.98
2019-02-21T18:05:31.479Z,45.60
2019-02-21T18:08:00.939Z,38.67
2019-02-21T18:10:30.485Z,36.70
2019-02-21T18:12:59.970Z,40.10
2019-02-21T18:15:29.454Z,43.63
2019-02-21T18:17:58.918Z,38.97
2019-02-21T18:20:28.537Z,42.53
2019-02-21T18:22:57.996Z,38.70
2019-02-21T18:25:40.654Z,44.13
2019-02-21T18:28:10.137Z,41.80
2019-02-21T18:30:39.603Z,38.10
2019-02-21T18:33:09.099Z,43.00
2019-02-21T18:35:38.548Z,39.93
2019-02-21T18:38:08.258Z,34.80
2019-02-21T18:40:37.746Z,39.10
2019-02-21T18:43:07.286Z,34.83
2019-02-21T18:45:36.762Z,35.40
2019-02-21T18:48:06.383Z,34.27
2019-02-21T18:50:38.440Z,36.40
2019-02-21T18:53:07.029Z,34.63
2019-02-21T18:55:36.497Z,37.20
2019-02-21T18:58:05.960Z,34.40
2019-02-21T19:00:35.445Z,33.70
2019-02-21T19:03:04.895Z,38.17
2019-02-21T19:05:36.116Z,38.83
2019-02-21T19:08:05.999Z,47.25
2019-02-21T19:10:35.527Z,51.80
2019-02-21T19:13:07.638Z,43.45
2019-02-21T19:15:36.271Z,50.93
2019-02-21T19:18:06.014Z,39.67
2019-02-21T19:20:35.576Z,40.83
2019-02-21T19:23:05.054Z,45.40
2019-02-21T19:25:34.537Z,50.07
2019-02-21T19:28:04.020Z,49.37
2019-02-21T19:30:38.300Z,39.63
2019-02-21T19:33:07.928Z,37.67
2019-02-21T19:35:37.726Z,42.50
2019-02-21T19:38:10.264Z,43.47
2019-02-21T19:40:38.403Z,41.23
2019-02-21T19:43:07.854Z,36.63
2019-02-21T19:45:37.314Z,38.37
2019-02-21T19:48:06.867Z,40.30
2019-02-21T19:50:36.418Z,33.17
2019-02-21T19:53:05.957Z,28.47
2019-02-21T19:55:35.447Z,33.20
2019-02-21T19:58:05.013Z,31.27
2019-02-21T20:00:35.342Z,29.30
2019-02-21T20:03:04.877Z,36.30
2019-02-21T20:05:34.364Z,37.33
2019-02-21T20:08:08.808Z,27.60
2019-02-21T20:10:35.833Z,31.33
2019-02-21T20:13:07.192Z,28.03
2019-02-21T20:15:36.737Z,37.60
2019-02-21T20:18:06.454Z,35.47
2019-02-21T20:20:35.991Z,35.93
2019-02-21T20:23:05.512Z,35.73
2019-02-21T20:25:34.996Z,36.97
2019-02-21T20:28:04.456Z,34.67
2019-02-21T20:30:33.932Z,35.07
2019-02-21T20:33:03.407Z,35.83
2019-02-21T20:35:32.940Z,39.27
2019-02-21T20:38:02.662Z,35.97
2019-02-21T20:40:32.140Z,36.97
2019-02-21T20:43:01.595Z,38.07
2019-02-21T20:45:31.145Z,38.90
2019-02-21T20:48:00.594Z,38.60
2019-02-21T20:50:30.120Z,48.60
2019-02-21T20:52:59.594Z,45.10
2019-02-21T20:55:29.093Z,45.40
2019-02-21T20:57:58.547Z,50.60
2019-02-21T21:00:28.181Z,42.53
2019-02-21T21:02:57.654Z,37.33
2019-02-21T21:05:27.189Z,37.23
2019-02-21T21:07:56.672Z,33.42
2019-02-21T21:10:26.200Z,40.90
2019-02-21T21:12:55.671Z,40.90
2019-02-21T21:15:25.132Z,41.90
2019-02-21T21:17:54.610Z,44.70
2019-02-21T21:20:25.899Z,40.00
2019-02-21T21:22:55.315Z,37.27
2019-02-21T21:25:25.062Z,44.07
2019-02-21T21:27:54.546Z,40.53
2019-02-21T21:30:24.101Z,46.27
2019-02-21T21:32:53.568Z,34.75
2019-02-21T21:35:23.029Z,44.77
2019-02-21T21:37:52.777Z,42.00
2019-02-21T21:40:22.311Z,40.10
2019-02-21T21:42:51.779Z,40.43
2019-02-21T21:45:21.249Z,44.10
2019-02-21T21:47:50.715Z,40.50
2019-02-21T21:50:21.462Z,42.84
2019-02-21T21:52:50.998Z,45.83
2019-02-21T21:55:21.086Z,53.16
2019-02-21T21:57:50.647Z,48.70
2019-02-21T22:00:24.575Z,42.20
2019-02-21T22:02:54.208Z,45.13
2019-02-21T22:05:24.753Z,48.64
2019-02-21T22:07:54.229Z,57.20
2019-02-21T22:10:24.754Z,52.62
2019-02-21T22:12:54.205Z,50.20
2019-02-21T22:15:25.559Z,50.48
2019-02-21T22:17:55.273Z,47.40
2019-02-21T22:20:24.762Z,54.07
2019-02-21T22:22:54.235Z,51.33
2019-02-21T22:25:24.828Z,57.16
2019-02-21T22:27:54.290Z,50.57
2019-02-21T22:30:25.002Z,44.40
2019-02-21T22:32:54.479Z,41.80
2019-02-21T22:35:24.932Z,45.67
2019-02-21T22:37:54.387Z,43.40
2019-02-21T22:40:24.922Z,43.76
2019-02-21T22:42:54.395Z,45.90
2019-02-21T22:45:24.913Z,40.52
2019-02-21T22:47:54.366Z,39.30
2019-02-21T22:50:26.815Z,36.32
2019-02-21T22:52:56.146Z,42.93
2019-02-21T22:55:25.611Z,47.23
2019-02-21T22:57:55.069Z,38.47
2019-02-21T23:00:42.460Z,42.75
2019-02-21T23:03:12.394Z,40.20
2019-02-21T23:06:10.153Z,38.37
2019-02-21T23:08:47.334Z,41.43
2019-02-21T23:11:16.822Z,38.97
2019-02-21T23:13:47.751Z,37.30
2019-02-21T23:16:17.360Z,36.40
2019-02-21T23:18:47.298Z,41.20
2019-02-21T23:21:16.859Z,36.17
2019-02-21T23:23:46.368Z,47.93
2019-02-21T23:26:15.873Z,31.33
2019-02-21T23:28:45.396Z,44.77
2019-02-21T23:31:14.878Z,38.30
2019-02-21T23:33:45.980Z,32.40
2019-02-21T23:36:15.462Z,34.27
2019-02-21T23:38:44.940Z,34.43
2019-02-21T23:41:14.402Z,32.50
2019-02-21T23:43:43.883Z,40.60
2019-02-21T23:46:13.386Z,31.60
2019-02-21T23:48:42.843Z,36.27
2019-02-21T23:51:12.323Z,38.37
2019-02-21T23:53:41.787Z,39.10
2019-02-21T23:56:11.257Z,32.37
2019-02-21T23:58:40.735Z,35.60
